General Aviation Weather

Text Reports

Enter one or more of the following location identifiers separated by a space:

Zip Code, Four-Character ICAO or Three-Character IATA airport codes.

METAR - Aviation Routine Weather Report
KACJ - Americus, Georgia
Updated at 3:35 PM GMT on July 29, 2014 (11:35 AM EDT):
METAR KACJ 291535Z AUTO 36004KT 10SM CLR 26/16 A3003 RMK AO2
TAF - Terminal Area Forecast
KACJ - Americus, Georgia
Updated at 3:35 PM GMT on July 29, 2014 (11:35 AM EDT):
No TAF is currently available for this location.
Decoded:
No decoded TAF is available.
PIREP - Pilot Weather Report
KACJ - Americus, Georgia
Updated at 3:35 PM GMT on July 29, 2014 (11:35 AM EDT):
No PIREP is currently available for this location.
AIRMET - Airmens Meteorological Information
KACJ - Americus, Georgia
Updated at 3:35 PM GMT on July 29, 2014 (11:35 AM EDT):
No AIRMET is currently available for this location.
SIGMET - Significant Meteorological Information
KACJ - Americus, Georgia
Updated at 3:35 PM GMT on July 29, 2014 (11:35 AM EDT):
No SIGMET is currently available for this location.
NOTAM - Notice to Airmen
KACJ - Americus, Georgia
Updated at 3:35 PM GMT on July 29, 2014 (11:35 AM EDT):
No NOTAM is currently available for this location.
Forecast Area
KACJ - Americus, Georgia
Updated at 3:35 PM GMT on July 29, 2014 (11:35 AM EDT):
No NOTAM is currently available for this location.
Aviation Weather Maps